Time;durP1;ratioP1;P1;durP2;ratioP2;P2;SDS_P1;SDS_P2;PMS_P1;PMS_P2;Temp;Humidity;BMP_temperature;BMP_pressure;BME280_temperature;BME280_humidity;BME280_pressure;Samples;Min_cycle;Max_cycle;Signal;HPM_P1;HPM_P2
2021/06/13 00:01:33;;;;;;;15.98;7.45;;;;;;;12.14;100.00;102607.22;3589514;39;20035;-65
2021/06/13 00:03:59;;;;;;;14.15;6.72;;;;;;;12.19;100.00;102607.81;3578867;39;20391;-65
2021/06/13 00:06:25;;;;;;;13.65;6.55;;;;;;;12.25;100.00;102607.38;3581291;39;20059;-64
2021/06/13 00:08:52;;;;;;;15.82;7.20;;;;;;;12.34;100.00;102607.72;3584192;39;20056;-65
2021/06/13 00:11:18;;;;;;;12.43;6.25;;;;;;;12.27;100.00;102605.44;3593000;39;20064;-64
2021/06/13 00:13:44;;;;;;;14.13;6.15;;;;;;;12.15;100.00;102606.28;3585436;39;20403;-64
2021/06/13 00:16:12;;;;;;;13.35;6.45;;;;;;;12.08;100.00;102602.25;3585109;39;20276;-64
2021/06/13 00:18:38;;;;;;;15.45;6.63;;;;;;;12.03;100.00;102605.25;3586829;39;20283;-64
2021/06/13 00:21:04;;;;;;;12.82;6.50;;;;;;;11.95;100.00;102617.53;3583045;39;20047;-64
2021/06/13 00:23:31;;;;;;;13.57;7.22;;;;;;;11.79;100.00;102613.09;3590673;39;20315;-64
2021/06/13 00:25:57;;;;;;;12.43;7.30;;;;;;;11.80;100.00;102617.53;3587987;39;20033;-64
2021/06/13 00:28:23;;;;;;;19.25;7.95;;;;;;;11.83;100.00;102625.44;3588276;39;20325;-64
2021/06/13 00:30:49;;;;;;;15.65;7.32;;;;;;;11.82;100.00;102615.63;3588993;39;20092;-64
2021/06/13 00:33:16;;;;;;;15.35;7.28;;;;;;;11.80;100.00;102622.94;3590339;39;20060;-63
2021/06/13 00:35:42;;;;;;;16.85;7.20;;;;;;;11.81;100.00;102616.59;3579936;39;20124;-64
2021/06/13 00:38:08;;;;;;;13.07;7.47;;;;;;;11.87;100.00;102624.28;3580389;39;20422;-64
2021/06/13 00:40:35;;;;;;;20.70;7.47;;;;;;;11.75;100.00;102617.84;3588809;39;20577;-66
2021/06/13 00:43:02;;;;;;;16.17;7.47;;;;;;;11.70;100.00;102627.19;3581667;39;20212;-64
2021/06/13 00:45:28;;;;;;;20.38;7.75;;;;;;;11.70;100.00;102617.31;3582429;39;20464;-64
2021/06/13 00:47:54;;;;;;;15.45;7.90;;;;;;;11.63;100.00;102620.47;3588540;39;20040;-64
2021/06/13 00:50:27;;;;;;;13.90;7.05;;;;;;;11.61;100.00;102622.41;3583468;39;20498;-64
2021/06/13 00:52:53;;;;;;;17.23;7.55;;;;;;;11.69;100.00;102617.38;3580851;39;20063;-64
2021/06/13 00:55:20;;;;;;;22.77;7.75;;;;;;;11.70;100.00;102629.91;3577574;39;20047;-64
2021/06/13 00:57:47;;;;;;;16.02;7.13;;;;;;;11.66;100.00;102628.38;3588258;39;20068;-65
2021/06/13 01:00:14;;;;;;;19.20;8.02;;;;;;;11.62;100.00;102621.47;3583605;39;20066;-64
2021/06/13 01:02:40;;;;;;;16.95;7.57;;;;;;;11.56;100.00;102618.19;3582994;39;20055;-66
2021/06/13 01:05:08;;;;;;;18.60;7.47;;;;;;;11.60;100.00;102616.16;3589221;39;20068;-63
2021/06/13 01:07:44;;;;;;;18.60;7.80;;;;;;;11.63;100.00;102617.78;3589843;39;20144;-65
2021/06/13 01:10:21;;;;;;;16.77;7.38;;;;;;;11.60;100.00;102620.69;3582983;39;20039;-64
2021/06/13 01:12:51;;;;;;;14.95;7.32;;;;;;;11.44;100.00;102613.59;3588449;39;20104;-64
2021/06/13 01:15:22;;;;;;;15.35;7.70;;;;;;;11.52;100.00;102618.47;3656002;22;20062;-64
2021/06/13 01:17:55;;;;;;;16.75;7.88;;;;;;;11.63;100.00;102618.66;3596915;39;20047;-63
2021/06/13 01:20:25;;;;;;;13.55;7.00;;;;;;;11.69;100.00;102614.66;3596361;39;20050;-63
2021/06/13 01:23:12;;;;;;;17.42;7.63;;;;;;;11.65;100.00;102621.25;3584391;39;20317;-64
2021/06/13 01:26:02;;;;;;;19.08;7.82;;;;;;;11.67;100.00;102616.63;3588609;39;20731;-65
2021/06/13 01:28:53;;;;;;;17.25;7.55;;;;;;;11.67;100.00;102630.09;3588059;39;20043;-65
2021/06/13 01:31:21;;;;;;;16.30;8.02;;;;;;;11.71;100.00;102634.34;3592086;39;20302;-64
2021/06/13 01:33:49;;;;;;;30.50;8.43;;;;;;;11.73;100.00;102625.19;3598958;39;20482;-64
2021/06/13 01:36:16;;;;;;;18.70;7.32;;;;;;;11.83;100.00;102629.97;3601897;39;20067;-65
2021/06/13 01:38:45;;;;;;;19.67;7.47;;;;;;;11.74;100.00;102628.75;3591120;39;20624;-64
2021/06/13 01:41:12;;;;;;;15.52;7.60;;;;;;;11.75;100.00;102627.78;3597437;39;20048;-63
2021/06/13 01:43:40;;;;;;;19.10;7.03;;;;;;;11.75;100.00;102627.78;3593815;39;20052;-64
2021/06/13 01:46:09;;;;;;;18.55;7.35;;;;;;;11.78;100.00;102626.69;3593836;39;20178;-64
2021/06/13 01:48:37;;;;;;;18.90;7.68;;;;;;;11.85;100.00;102628.91;3592810;39;20291;-65
2021/06/13 01:51:04;;;;;;;16.20;7.53;;;;;;;11.62;100.00;102629.56;3596565;39;20039;-63
2021/06/13 01:53:41;;;;;;;18.50;7.78;;;;;;;11.50;100.00;102628.50;3588781;39;20087;-64
2021/06/13 01:56:09;;;;;;;17.00;8.10;;;;;;;11.42;100.00;102626.28;3585508;39;20132;-64
2021/06/13 01:58:36;;;;;;;18.58;7.72;;;;;;;11.29;100.00;102630.72;3589123;39;20044;-63
2021/06/13 02:01:06;;;;;;;17.85;8.05;;;;;;;11.25;100.00;102631.88;3586314;39;20047;-63
2021/06/13 02:03:35;;;;;;;21.00;9.25;;;;;;;11.16;100.00;102628.81;3589840;39;20032;-65
2021/06/13 02:06:02;;;;;;;;;;;;;;;11.08;100.00;102628.41;3591771;39;20044;-65
2021/06/13 02:08:33;;;;;;;17.40;7.88;;;;;;;11.08;100.00;102628.41;3600493;39;20301;-65
2021/06/13 02:11:01;;;;;;;17.85;7.70;;;;;;;11.07;100.00;102620.44;3600813;39;20047;-66
2021/06/13 02:13:31;;;;;;;23.10;8.82;;;;;;;10.99;100.00;102613.69;3585387;39;20047;-64
2021/06/13 02:15:58;;;;;;;18.55;7.95;;;;;;;10.97;100.00;102620.16;3592498;39;20039;-64
2021/06/13 02:18:25;;;;;;;16.90;8.90;;;;;;;11.00;100.00;102614.59;3593741;39;20055;-65
2021/06/13 02:20:54;;;;;;;19.27;8.07;;;;;;;10.91;100.00;102610.63;3591689;39;20059;-64
2021/06/13 02:23:24;;;;;;;18.92;8.10;;;;;;;10.83;100.00;102613.78;3592711;39;20602;-64
2021/06/13 02:25:50;;;;;;;25.63;9.35;;;;;;;10.85;100.00;102617.25;3592105;39;20036;-64
2021/06/13 02:28:16;;;;;;;22.02;8.88;;;;;;;10.95;100.00;102616.69;3590517;39;20040;-65
2021/06/13 02:30:46;;;;;;;19.42;9.00;;;;;;;10.99;100.00;102618.22;3590056;39;20137;-64
2021/06/13 02:33:15;;;;;;;17.70;8.50;;;;;;;10.92;100.00;102619.56;3591579;39;20059;-64
2021/06/13 02:35:45;;;;;;;23.08;8.68;;;;;;;10.93;100.00;102619.47;3593576;39;20063;-64
2021/06/13 02:38:13;;;;;;;14.13;7.78;;;;;;;10.82;100.00;102616.56;3586732;39;20049;-65
2021/06/13 02:40:39;;;;;;;18.65;8.90;;;;;;;10.85;100.00;102622.66;3589674;39;20038;-64
2021/06/13 02:43:05;;;;;;;18.55;8.50;;;;;;;10.71;100.00;102625.31;3588903;39;20313;-64
2021/06/13 02:45:31;;;;;;;18.38;8.65;;;;;;;10.69;100.00;102619.16;3592814;39;20232;-63
2021/06/13 02:47:57;;;;;;;19.70;8.50;;;;;;;10.60;100.00;102617.91;3591904;39;20055;-64
2021/06/13 02:50:24;;;;;;;16.98;9.45;;;;;;;10.49;100.00;102613.16;3592507;39;20054;-64
2021/06/13 02:52:58;;;;;;;23.00;9.27;;;;;;;10.46;100.00;102621.41;3593562;39;20055;-64
2021/06/13 02:55:36;;;;;;;16.83;8.43;;;;;;;10.41;100.00;102626.22;3593980;39;20046;-65
2021/06/13 02:58:05;;;;;;;16.92;8.45;;;;;;;10.40;100.00;102627.16;3592841;39;20295;-65
2021/06/13 03:00:31;;;;;;;19.25;8.82;;;;;;;10.37;100.00;102627.34;3590954;39;20055;-64
2021/06/13 03:03:00;;;;;;;18.73;8.80;;;;;;;10.30;100.00;102626.81;3589812;39;20055;-64
2021/06/13 03:05:27;;;;;;;18.30;8.70;;;;;;;10.31;100.00;102635.75;3587792;39;20315;-65
2021/06/13 03:07:54;;;;;;;20.52;8.63;;;;;;;10.27;100.00;102634.19;3591731;39;20303;-65
2021/06/13 03:10:21;;;;;;;21.08;8.88;;;;;;;10.33;100.00;102633.84;3592223;39;20071;-65
2021/06/13 03:12:54;;;;;;;15.85;8.75;;;;;;;10.44;100.00;102639.50;3588236;39;20422;-65
2021/06/13 03:15:20;;;;;;;16.45;8.43;;;;;;;10.46;100.00;102637.56;3588443;39;20660;-65
2021/06/13 03:17:46;;;;;;;21.20;8.30;;;;;;;10.30;100.00;102642.09;3591356;39;20143;-63
2021/06/13 03:20:13;;;;;;;19.73;8.75;;;;;;;10.23;100.00;102636.22;3589935;39;20048;-64
2021/06/13 03:22:40;;;;;;;16.63;8.13;;;;;;;10.27;100.00;102637.75;3593529;39;20066;-63
2021/06/13 03:25:09;;;;;;;20.48;8.90;;;;;;;10.21;100.00;102642.66;3591631;39;20042;-64
2021/06/13 03:27:38;;;;;;;;;;;;;;;10.23;100.00;102656.88;3597142;39;20131;-64
2021/06/13 03:30:07;;;;;;;22.63;8.83;;;;;;;10.28;100.00;102649.41;3588397;39;20206;-64
2021/06/13 03:32:33;;;;;;;17.52;8.88;;;;;;;10.24;100.00;102658.59;3590695;39;20256;-64
2021/06/13 03:34:59;;;;;;;17.67;9.13;;;;;;;10.19;100.00;102653.50;3596871;39;20466;-64
2021/06/13 03:37:27;;;;;;;17.67;9.00;;;;;;;10.28;100.00;102652.09;3593869;39;20063;-64
2021/06/13 03:39:54;;;;;;;22.35;9.10;;;;;;;10.25;100.00;102665.72;3591106;39;20056;-63
2021/06/13 03:42:21;;;;;;;18.63;8.85;;;;;;;10.23;100.00;102662.25;3589255;39;20067;-65
2021/06/13 03:44:48;;;;;;;16.92;8.13;;;;;;;10.26;100.00;102662.06;3593879;39;20047;-65
2021/06/13 03:47:17;;;;;;;15.45;8.43;;;;;;;10.25;100.00;102665.72;3599284;39;20090;-63
2021/06/13 03:49:47;;;;;;;16.90;9.95;;;;;;;10.30;100.00;102664.47;3600591;39;20051;-65
2021/06/13 03:52:13;;;;;;;17.13;7.93;;;;;;;10.28;100.00;102662.84;3599900;39;20050;-65
2021/06/13 03:54:40;;;;;;;15.90;8.30;;;;;;;10.33;100.00;102658.06;3594103;39;20054;-64
2021/06/13 03:57:08;;;;;;;20.17;8.82;;;;;;;10.22;100.00;102664.06;3595036;39;20320;-66
2021/06/13 03:59:37;;;;;;;20.77;9.25;;;;;;;10.13;100.00;102673.56;3600278;39;20184;-64
2021/06/13 04:02:06;;;;;;;14.65;7.82;;;;;;;10.18;100.00;102679.53;3598024;39;20642;-63
2021/06/13 04:04:40;;;;;;;18.50;8.70;;;;;;;10.30;100.00;102674.38;3598469;39;20055;-65
2021/06/13 04:07:09;;;;;;;15.63;9.00;;;;;;;10.16;100.00;102675.19;3601599;39;20055;-64
2021/06/13 04:09:38;;;;;;;18.40;8.88;;;;;;;10.21;100.00;102669.56;3597948;39;20509;-64
2021/06/13 04:12:08;;;;;;;19.17;8.85;;;;;;;10.29;100.00;102672.66;3599307;39;20061;-63
2021/06/13 04:14:35;;;;;;;15.23;8.75;;;;;;;10.25;100.00;102684.56;3600454;39;20051;-64
2021/06/13 04:17:02;;;;;;;22.13;9.82;;;;;;;10.31;100.00;102686.91;3599040;39;20066;-65
2021/06/13 04:19:29;;;;;;;19.55;8.95;;;;;;;10.27;100.00;102679.94;3600215;39;20362;-64
2021/06/13 04:21:57;;;;;;;17.65;9.45;;;;;;;10.22;100.00;102684.72;3600036;39;20066;-65
2021/06/13 04:24:24;;;;;;;20.27;10.48;;;;;;;10.26;100.00;102672.81;3600000;39;20072;-65
2021/06/13 04:26:53;;;;;;;19.23;9.50;;;;;;;10.31;100.00;102676.13;3602245;39;20054;-66
2021/06/13 04:29:20;;;;;;;19.27;9.40;;;;;;;10.34;100.00;102684.91;3601156;39;20063;-65
2021/06/13 04:31:46;;;;;;;20.70;10.10;;;;;;;10.41;100.00;102682.75;3599105;39;20048;-66
2021/06/13 04:34:13;;;;;;;18.73;8.73;;;;;;;10.44;100.00;102681.69;3599647;39;20047;-65
2021/06/13 04:36:39;;;;;;;16.92;8.77;;;;;;;10.52;100.00;102685.66;3601938;39;20255;-66
2021/06/13 04:39:07;;;;;;;18.15;9.02;;;;;;;10.63;100.00;102697.59;3594750;39;20272;-66
2021/06/13 04:41:35;;;;;;;21.50;10.77;;;;;;;10.67;100.00;102694.66;3599271;39;20046;-64
2021/06/13 04:44:02;;;;;;;19.63;9.95;;;;;;;10.72;100.00;102691.69;3600677;39;20543;-66
2021/06/13 04:46:28;;;;;;;18.23;9.75;;;;;;;10.93;100.00;102691.34;3599564;39;20054;-65
2021/06/13 04:48:55;;;;;;;18.90;9.23;;;;;;;10.86;100.00;102689.03;3602368;39;20047;-66
2021/06/13 04:51:25;;;;;;;17.65;9.00;;;;;;;11.31;100.00;102688.97;3599308;39;20106;-66
2021/06/13 04:54:20;;;;;;;21.10;9.50;;;;;;;11.96;100.00;102692.13;3599375;39;20053;-65
2021/06/13 04:57:06;;;;;;;16.73;8.75;;;;;;;12.44;100.00;102696.09;3600435;39;20419;-65
2021/06/13 04:59:32;;;;;;;16.58;7.97;;;;;;;12.48;100.00;102698.59;3592793;39;20301;-66
2021/06/13 05:01:59;;;;;;;18.15;8.57;;;;;;;12.92;100.00;102702.78;3591519;39;20060;-65
2021/06/13 05:04:26;;;;;;;15.02;8.65;;;;;;;13.73;100.00;102707.00;3593122;39;20493;-65
2021/06/13 05:06:53;;;;;;;15.15;8.43;;;;;;;14.78;100.00;102695.66;3596040;39;20211;-65
2021/06/13 05:09:19;;;;;;;16.75;7.57;;;;;;;16.58;100.00;102691.94;3591211;39;20058;-65
2021/06/13 05:11:46;;;;;;;19.25;8.23;;;;;;;14.92;100.00;102700.88;3595259;39;20059;-65
2021/06/13 05:14:13;;;;;;;19.88;8.73;;;;;;;13.17;100.00;102691.13;3594159;39;20407;-64
2021/06/13 05:16:41;;;;;;;14.07;7.85;;;;;;;12.92;100.00;102695.53;3596914;39;20087;-63
2021/06/13 05:19:08;;;;;;;16.77;8.60;;;;;;;12.94;100.00;102699.03;3588862;39;20040;-65
2021/06/13 05:21:34;;;;;;;14.73;8.40;;;;;;;12.96;100.00;102710.59;3590316;39;20060;-64
2021/06/13 05:24:01;;;;;;;17.25;8.75;;;;;;;12.94;100.00;102711.66;3590923;39;20035;-65
2021/06/13 05:26:28;;;;;;;18.25;8.10;;;;;;;13.00;100.00;102713.97;3592481;39;20043;-64
2021/06/13 05:28:54;;;;;;;17.15;8.35;;;;;;;13.09;100.00;102713.31;3597270;39;20043;-65
2021/06/13 05:31:22;;;;;;;13.80;8.00;;;;;;;13.42;100.00;102709.22;3599034;39;20045;-65
2021/06/13 05:33:48;;;;;;;15.05;7.57;;;;;;;13.56;100.00;102716.38;3597927;39;20043;-65
2021/06/13 05:36:15;;;;;;;15.57;7.63;;;;;;;13.33;100.00;102724.22;3601777;39;20090;-65
2021/06/13 05:38:44;;;;;;;19.83;7.65;;;;;;;13.25;100.00;102723.91;3599618;39;20055;-65
2021/06/13 05:41:12;;;;;;;15.18;7.13;;;;;;;13.39;100.00;102719.41;3601829;39;20044;-66
2021/06/13 05:43:39;;;;;;;18.47;8.60;;;;;;;13.58;100.00;102730.63;3600850;39;20048;-65
2021/06/13 05:46:06;;;;;;;16.33;7.78;;;;;;;13.59;100.00;102729.66;3601534;39;20047;-65
2021/06/13 05:48:34;;;;;;;15.20;6.00;;;;;;;13.59;100.00;102731.47;3600894;39;20043;-67
2021/06/13 05:51:00;;;;;;;15.57;6.35;;;;;;;13.98;100.00;102737.69;3599935;39;20402;-65
2021/06/13 05:53:27;;;;;;;16.90;5.85;;;;;;;14.04;100.00;102737.25;3600432;39;20050;-66
2021/06/13 05:55:54;;;;;;;12.48;5.55;;;;;;;14.08;100.00;102727.06;3603680;39;20043;-66
2021/06/13 05:58:20;;;;;;;14.95;5.82;;;;;;;13.98;100.00;102726.88;3600480;39;20047;-65
2021/06/13 06:00:49;;;;;;;11.73;4.50;;;;;;;14.21;100.00;102741.44;3602497;39;20385;-65
2021/06/13 06:03:15;;;;;;;11.23;5.17;;;;;;;14.22;100.00;102745.84;3600000;39;20042;-66
2021/06/13 06:05:43;;;;;;;12.35;5.28;;;;;;;14.19;100.00;102744.25;3600208;39;20062;-66
2021/06/13 06:08:10;;;;;;;10.70;5.28;;;;;;;14.52;100.00;102736.44;3601725;39;20062;-66
2021/06/13 06:10:36;;;;;;;13.48;5.63;;;;;;;14.80;100.00;102737.06;3600002;39;20050;-65
2021/06/13 06:13:04;;;;;;;8.90;4.72;;;;;;;14.87;100.00;102735.63;3600376;39;20040;-65
2021/06/13 06:15:32;;;;;;;12.77;5.90;;;;;;;14.99;100.00;102741.94;3601827;39;20042;-66
2021/06/13 06:17:59;;;;;;;13.05;4.75;;;;;;;15.12;100.00;102737.28;3600746;39;20047;-67
2021/06/13 06:20:28;;;;;;;10.65;4.85;;;;;;;15.83;100.00;102749.84;3600883;39;20068;-65
2021/06/13 06:22:57;;;;;;;13.20;4.68;;;;;;;14.98;100.00;102741.06;3602595;39;20047;-65
2021/06/13 06:25:24;;;;;;;9.57;4.53;;;;;;;14.95;100.00;102735.88;3601203;39;20043;-64
2021/06/13 06:27:52;;;;;;;10.65;4.95;;;;;;;14.96;100.00;102739.44;3600265;39;20386;-64
2021/06/13 06:30:20;;;;;;;10.90;4.95;;;;;;;15.36;100.00;102750.75;3601083;39;20394;-65
2021/06/13 06:32:47;;;;;;;13.15;5.10;;;;;;;15.50;100.00;102759.66;3602643;39;20054;-64
2021/06/13 06:35:14;;;;;;;14.43;4.47;;;;;;;15.31;100.00;102761.13;3600570;39;20569;-64
2021/06/13 06:37:41;;;;;;;10.32;4.60;;;;;;;15.29;100.00;102752.22;3599888;39;20050;-65
2021/06/13 06:40:13;;;;;;;9.77;4.60;;;;;;;16.07;100.00;102752.38;3602034;39;20060;-64
2021/06/13 06:42:40;;;;;;;14.77;5.60;;;;;;;16.13;100.00;102749.16;3602659;39;20043;-64
2021/06/13 06:45:08;;;;;;;10.68;4.32;;;;;;;16.35;100.00;102748.25;3599634;39;20047;-65
2021/06/13 06:47:35;;;;;;;12.98;4.53;;;;;;;16.10;100.00;102755.69;3602757;39;20043;-65
2021/06/13 06:50:01;;;;;;;9.07;4.60;;;;;;;16.55;100.00;102757.44;3601234;39;20055;-64
2021/06/13 06:52:28;;;;;;;10.85;5.18;;;;;;;16.55;100.00;102756.56;3600337;39;20050;-66
2021/06/13 06:54:54;;;;;;;9.93;4.47;;;;;;;16.29;100.00;102760.47;3600679;39;20096;-65
2021/06/13 06:57:22;;;;;;;14.07;5.13;;;;;;;16.22;100.00;102761.13;3600998;39;20040;-64
2021/06/13 06:59:49;;;;;;;10.75;4.47;;;;;;;16.14;100.00;102758.19;3602683;39;20087;-66
2021/06/13 07:02:15;;;;;;;13.15;5.53;;;;;;;16.10;100.00;102769.28;3599432;39;20059;-65
2021/06/13 07:04:41;;;;;;;9.45;4.38;;;;;;;16.55;100.00;102767.44;3600352;39;20035;-64
2021/06/13 07:07:08;;;;;;;13.48;4.55;;;;;;;16.91;100.00;102778.97;3599434;39;20307;-65
2021/06/13 07:09:35;;;;;;;9.27;4.25;;;;;;;16.57;100.00;102777.19;3600379;39;20039;-65
2021/06/13 07:12:01;;;;;;;11.02;4.70;;;;;;;16.83;100.00;102785.03;3600436;39;20464;-65
2021/06/13 07:14:29;;;;;;;10.45;4.40;;;;;;;16.88;100.00;102784.66;3595200;39;20346;-64
2021/06/13 07:16:55;;;;;;;12.77;4.75;;;;;;;17.25;100.00;102787.78;3595503;39;20050;-63
2021/06/13 07:19:22;;;;;;;11.95;4.80;;;;;;;17.14;100.00;102794.16;3595005;39;20083;-65
2021/06/13 07:21:49;;;;;;;9.98;4.45;;;;;;;17.06;100.00;102796.69;3594652;39;20046;-65
2021/06/13 07:24:16;;;;;;;9.15;4.35;;;;;;;17.35;100.00;102793.31;3588126;39;20051;-64
2021/06/13 07:26:42;;;;;;;7.70;4.07;;;;;;;17.41;100.00;102798.22;3590376;39;20039;-64
2021/06/13 07:29:09;;;;;;;8.82;4.50;;;;;;;17.61;100.00;102795.63;3590115;39;20050;-64
2021/06/13 07:31:37;;;;;;;10.38;4.38;;;;;;;17.30;100.00;102796.44;3587969;39;20353;-64
2021/06/13 07:34:03;;;;;;;11.27;4.72;;;;;;;17.11;100.00;102808.03;3589890;39;20071;-65
2021/06/13 07:36:30;;;;;;;9.43;4.20;;;;;;;17.17;100.00;102810.22;3589881;39;20059;-64
2021/06/13 07:38:56;;;;;;;6.82;3.92;;;;;;;17.34;100.00;102807.91;3589353;39;20069;-66
2021/06/13 07:41:23;;;;;;;11.85;4.07;;;;;;;17.57;100.00;102803.19;3590857;39;20573;-65
2021/06/13 07:43:49;;;;;;;10.07;4.18;;;;;;;17.30;100.00;102801.88;3588835;39;20808;-65
2021/06/13 07:46:15;;;;;;;8.93;3.50;;;;;;;17.31;100.00;102800.00;3589184;39;20059;-66
2021/06/13 07:48:43;;;;;;;12.82;4.43;;;;;;;17.20;100.00;102819.16;3589855;39;20055;-65
2021/06/13 07:51:10;;;;;;;13.27;4.55;;;;;;;17.23;100.00;102822.44;3588158;39;20043;-66
2021/06/13 07:53:43;;;;;;;9.88;4.50;;;;;;;17.66;100.00;102823.28;3592651;39;20050;-65
2021/06/13 07:56:10;;;;;;;10.88;4.63;;;;;;;17.93;100.00;102814.59;3594288;39;20053;-64
2021/06/13 07:58:36;;;;;;;7.55;3.67;;;;;;;17.86;100.00;102825.13;3591612;39;20407;-64
2021/06/13 08:01:03;;;;;;;14.15;4.90;;;;;;;17.78;100.00;102822.19;3593651;39;20087;-65
2021/06/13 08:03:29;;;;;;;9.55;3.65;;;;;;;18.35;100.00;102829.94;3594574;39;20054;-65
2021/06/13 08:05:57;;;;;;;8.65;4.03;;;;;;;18.96;100.00;102823.41;3596387;39;20047;-66
2021/06/13 08:08:24;;;;;;;8.45;3.97;;;;;;;18.87;100.00;102825.16;3592998;39;20052;-66
2021/06/13 08:10:50;;;;;;;7.82;4.03;;;;;;;19.02;97.05;102827.44;3589150;39;20043;-65
2021/06/13 08:13:18;;;;;;;10.73;3.83;;;;;;;17.96;100.00;102833.38;3588007;39;20587;-65
2021/06/13 08:15:45;;;;;;;8.77;4.07;;;;;;;17.83;100.00;102830.84;3587948;39;20052;-65
2021/06/13 08:18:13;;;;;;;9.52;3.72;;;;;;;17.46;100.00;102827.75;3588658;39;20032;-66
2021/06/13 08:20:40;;;;;;;7.35;3.80;;;;;;;16.87;100.00;102829.13;3588100;39;20063;-65
2021/06/13 08:23:08;;;;;;;11.10;4.45;;;;;;;16.74;100.00;102832.91;3588952;39;20047;-64
2021/06/13 08:25:35;;;;;;;11.00;4.20;;;;;;;17.48;100.00;102823.91;3594708;39;20091;-66
2021/06/13 08:28:01;;;;;;;8.00;3.70;;;;;;;18.06;100.00;102825.22;3600295;39;20066;-65
2021/06/13 08:30:28;;;;;;;9.48;4.25;;;;;;;17.96;99.93;102829.78;3600258;39;20053;-64
2021/06/13 08:32:55;;;;;;;6.88;3.70;;;;;;;18.01;100.00;102828.38;3602667;39;20049;-65
2021/06/13 08:35:22;;;;;;;7.82;3.78;;;;;;;18.36;100.00;102834.38;3599702;39;20046;-66
2021/06/13 08:37:50;;;;;;;7.75;3.17;;;;;;;18.49;100.00;102839.56;3599163;39;20048;-65
2021/06/13 08:40:19;;;;;;;8.18;3.78;;;;;;;18.96;100.00;102842.53;3598452;39;20398;-65
2021/06/13 08:42:45;;;;;;;10.10;3.95;;;;;;;19.02;97.44;102833.78;3599310;39;20043;-64
2021/06/13 08:45:14;;;;;;;9.50;4.55;;;;;;;19.06;93.83;102839.81;3599928;39;20676;-66
2021/06/13 08:47:41;;;;;;;8.90;3.70;;;;;;;19.13;100.00;102834.66;3598471;39;20326;-66
2021/06/13 08:50:09;;;;;;;7.90;4.03;;;;;;;19.36;92.57;102837.91;3597847;39;20045;-66
2021/06/13 08:52:36;;;;;;;9.35;3.50;;;;;;;19.37;96.48;102832.28;3599626;39;20065;-66
2021/06/13 08:55:03;;;;;;;7.07;3.80;;;;;;;19.15;88.82;102847.13;3597099;39;20073;-65
2021/06/13 08:57:32;;;;;;;9.90;4.40;;;;;;;19.52;90.69;102840.03;3598534;39;20043;-66
2021/06/13 08:59:58;;;;;;;6.90;3.43;;;;;;;19.23;85.52;102833.63;3598999;39;21300;-66
2021/06/13 09:02:26;;;;;;;6.10;3.78;;;;;;;19.63;84.33;102841.75;3597831;39;20055;-66
2021/06/13 09:04:52;;;;;;;6.75;3.83;;;;;;;19.43;82.78;102833.59;3599887;39;20081;-66
2021/06/13 09:07:24;;;;;;;7.15;3.28;;;;;;;19.54;80.42;102836.16;3599364;39;20089;-67
2021/06/13 09:09:51;;;;;;;8.20;3.60;;;;;;;19.76;88.22;102848.59;3602253;39;20051;-66
2021/06/13 09:12:19;;;;;;;7.57;3.50;;;;;;;20.06;74.14;102843.91;3598811;39;20059;-64
2021/06/13 09:14:51;;;;;;;7.15;3.20;;;;;;;19.63;83.06;102834.41;3598506;39;20387;-65
2021/06/13 09:17:19;;;;;;;5.32;3.25;;;;;;;20.05;75.20;102842.22;3600298;39;20055;-65
2021/06/13 09:20:23;;;;;;;7.18;3.45;;;;;;;20.31;71.56;102836.88;3599479;39;20070;-65
2021/06/13 09:23:06;;;;;;;7.13;3.47;;;;;;;20.12;73.53;102839.72;3594647;39;20048;-64
2021/06/13 09:25:33;;;;;;;9.75;3.33;;;;;;;20.63;67.96;102838.28;3595491;39;20039;-65
2021/06/13 09:28:08;;;;;;;8.68;3.35;;;;;;;20.54;67.23;102846.53;3595313;39;20069;-65
2021/06/13 09:30:37;;;;;;;5.80;3.50;;;;;;;19.98;62.64;102832.00;3596278;39;20451;-65
2021/06/13 09:33:07;;;;;;;7.47;3.40;;;;;;;19.87;75.88;102836.66;3594433;39;20060;-65
2021/06/13 09:35:34;;;;;;;6.07;3.05;;;;;;;20.15;64.04;102841.31;3595755;39;20426;-67
2021/06/13 09:38:10;;;;;;;7.68;3.80;;;;;;;20.38;65.17;102834.41;3602205;39;20368;-65
2021/06/13 09:40:38;;;;;;;9.35;3.45;;;;;;;20.71;59.40;102833.94;3600416;39;20056;-67
2021/06/13 09:43:11;;;;;;;6.75;3.53;;;;;;;21.00;58.66;102840.03;3601996;39;20070;-66
2021/06/13 09:45:45;;;;;;;6.65;3.30;;;;;;;20.90;52.79;102842.00;3602792;39;20038;-65
2021/06/13 09:48:12;;;;;;;5.28;2.72;;;;;;;21.27;58.22;102834.63;3600310;39;20068;-66
2021/06/13 09:50:40;;;;;;;6.68;3.20;;;;;;;21.47;61.13;102838.03;3601596;39;20062;-66
2021/06/13 09:53:35;;;;;;;8.93;3.38;;;;;;;21.64;55.95;102828.06;3601334;39;20066;-65
2021/06/13 09:56:15;;;;;;;6.28;3.30;;;;;;;21.46;55.58;102833.56;3582717;39;20055;-67
2021/06/13 09:58:56;;;;;;;8.23;3.78;;;;;;;21.84;53.33;102834.19;3602728;39;20054;-64
2021/06/13 10:01:27;;;;;;;7.63;3.30;;;;;;;21.16;57.80;102842.06;3601564;39;20067;-64
2021/06/13 10:03:53;;;;;;;7.00;3.58;;;;;;;21.07;61.15;102840.28;3602364;39;20052;-65
2021/06/13 10:06:20;;;;;;;6.93;3.10;;;;;;;21.51;58.47;102823.03;3603240;39;20061;-65
2021/06/13 10:08:47;;;;;;;5.47;3.05;;;;;;;22.10;55.95;102833.28;3601474;39;20350;-65
2021/06/13 10:11:14;;;;;;;9.00;3.88;;;;;;;21.45;50.95;102840.94;3602091;39;20560;-65
2021/06/13 10:13:50;;;;;;;7.65;3.97;;;;;;;21.77;51.85;102833.97;3601324;39;20045;-67
2021/06/13 10:16:26;;;;;;;7.20;3.33;;;;;;;22.38;51.79;102826.56;3600990;39;20103;-65
2021/06/13 10:18:55;;;;;;;6.30;3.10;;;;;;;22.60;60.85;102832.47;3603137;39;20091;-64
2021/06/13 10:21:25;;;;;;;7.15;3.55;;;;;;;21.30;52.51;102815.13;3601619;39;20072;-65
2021/06/13 10:23:52;;;;;;;5.78;3.30;;;;;;;20.73;59.29;102820.97;3603486;39;20052;-66
2021/06/13 10:26:19;;;;;;;6.15;3.53;;;;;;;21.23;57.50;102820.41;3601703;39;20066;-65
2021/06/13 10:28:45;;;;;;;9.40;3.72;;;;;;;21.78;54.13;102812.91;3600918;39;20199;-66
2021/06/13 10:31:12;;;;;;;7.82;3.47;;;;;;;22.00;56.08;102815.06;3602443;39;20058;-65
2021/06/13 10:33:41;;;;;;;10.32;3.58;;;;;;;22.08;55.91;102819.72;3601730;39;20043;-65
2021/06/13 10:36:08;;;;;;;7.45;3.53;;;;;;;21.85;57.65;102811.25;3600006;39;20373;-67
2021/06/13 10:38:36;;;;;;;6.60;3.20;;;;;;;21.94;58.70;102807.53;3604472;39;20889;-66
2021/06/13 10:41:03;;;;;;;6.70;3.30;;;;;;;22.12;57.34;102810.16;3600494;39;20051;-68
2021/06/13 10:43:30;;;;;;;8.02;3.60;;;;;;;;;;3601297;39;20313;-65
2021/06/13 10:46:04;;;;;;;6.88;3.60;;;;;;;22.00;59.98;102811.50;3602380;39;20051;-66
2021/06/13 10:48:41;;;;;;;5.70;3.53;;;;;;;22.26;55.33;102808.69;3599082;39;20214;-66
2021/06/13 10:51:35;;;;;;;7.53;3.40;;;;;;;22.41;57.19;102814.41;3600676;39;20035;-65
2021/06/13 10:54:24;;;;;;;5.00;2.78;;;;;;;22.14;57.23;102812.72;3601437;39;20222;-66
2021/06/13 10:56:53;;;;;;;8.90;3.47;;;;;;;22.72;54.19;102811.06;3599709;39;20058;-66
2021/06/13 10:59:21;;;;;;;7.47;3.85;;;;;;;23.03;56.44;102808.47;3601271;39;20031;-66
2021/06/13 11:02:03;;;;;;;6.55;3.60;;;;;;;23.12;53.40;102814.88;3603121;39;20050;-65
2021/06/13 11:04:45;;;;;;;8.13;3.55;;;;;;;22.40;59.96;102808.03;3602290;39;20553;-65
2021/06/13 11:07:12;;;;;;;6.18;3.13;;;;;;;22.47;56.80;102810.16;3600537;39;20832;-64
2021/06/13 11:10:14;;;;;;;6.82;3.30;;;;;;;22.21;63.44;102802.81;3603096;39;20158;-65
2021/06/13 11:12:45;;;;;;;6.53;3.25;;;;;;;22.65;57.81;102797.13;3596609;39;20044;-65
2021/06/13 11:15:12;;;;;;;6.65;3.13;;;;;;;23.21;52.50;102794.59;3595069;39;20043;-66
2021/06/13 11:17:52;;;;;;;5.18;2.67;;;;;;;23.18;54.07;102789.44;3595264;39;20089;-66
2021/06/13 11:20:49;;;;;;;6.28;3.30;;;;;;;23.73;49.70;102793.31;3599046;39;20079;-65
2021/06/13 11:23:40;;;;;;;5.65;2.72;;;;;;;23.10;52.03;102786.72;3599223;39;20058;-65